モンロビア の空港の天気 - METARとTAF

モンロビア・ロバーツ国際空港 ( GLRB / ROB ) - リベリア モンロビア
飛行場実況気象(Metar)
観測時間11/19 09:30 GMT (11/19 09:30 UTC)
風向・風速- -
視程10km以上
天気現象
全天の8割程度の雲 雲底高度 550m
気温29℃
湿度84%
気圧-
METARGLRB 190930Z /////KT 9999 BKN018 29/26 Q//// NOSIG
過去の天気等 Google飛行場航空写真 Wunderground天気予報

過去48時間のMETAR

飛行場予報(TAF)
発表時間: 11/19 04:39 GMT (11/19 04:39 UTC)
予報対象時間: 19日6時 GMT ~ 20日12時 GMT
風向・風速南西 5m/s
視程10km以上
全天の8割程度の雲 雲底高度 550m
19日6時 GMT ~ 19日10時 GMT に一時的に
風向・風速北北東 2m/s
視程8000m
全天の8割程度の雲 雲底高度 400m
少しの積乱雲 雲底高度 670m
19日11時 GMT ~ 19日15時 GMT に一時的に
風向・風速南西 6m/s
視程10km以上
天気現象
全天の4割程度の雲 雲底高度 580m
TAF GLRB 190439Z 1906/2012 23010KT 9999 BKN018
TEMPO 1906/1910 03003KT 8000 BKN013 FEW022CB
TEMPO 1911/1915 22012KT 9999 TS SCT019 EW026CB